sensor_id;sensor_type;location;lat;lon;timestamp;P1;durP1;ratioP1;P2;durP2;ratioP2
62523;SDS011;53689;56.878;60.672;2023-09-07T00:01:05;22.88;;;14.30;;
62523;SDS011;53689;56.878;60.672;2023-09-07T00:03:35;21.48;;;14.20;;
62523;SDS011;53689;56.878;60.672;2023-09-07T00:06:03;27.80;;;18.50;;
62523;SDS011;53689;56.878;60.672;2023-09-07T00:08:31;29.38;;;19.90;;
62523;SDS011;53689;56.878;60.672;2023-09-07T00:11:02;32.28;;;20.85;;
62523;SDS011;53689;56.878;60.672;2023-09-07T00:13:30;26.92;;;17.60;;
62523;SDS011;53689;56.878;60.672;2023-09-07T00:15:58;20.17;;;14.93;;
62523;SDS011;53689;56.878;60.672;2023-09-07T00:18:26;20.10;;;13.90;;
62523;SDS011;53689;56.878;60.672;2023-09-07T00:20:56;21.50;;;14.27;;
62523;SDS011;53689;56.878;60.672;2023-09-07T00:25:51;21.67;;;14.70;;
62523;SDS011;53689;56.878;60.672;2023-09-07T00:28:19;22.58;;;14.85;;
62523;SDS011;53689;56.878;60.672;2023-09-07T00:30:47;23.73;;;17.13;;
62523;SDS011;53689;56.878;60.672;2023-09-07T00:33:15;24.73;;;15.35;;
62523;SDS011;53689;56.878;60.672;2023-09-07T00:35:43;22.88;;;15.27;;
62523;SDS011;53689;56.878;60.672;2023-09-07T00:38:12;19.88;;;13.82;;
62523;SDS011;53689;56.878;60.672;2023-09-07T00:40:42;19.55;;;13.25;;
62523;SDS011;53689;56.878;60.672;2023-09-07T00:43:10;18.33;;;12.02;;
62523;SDS011;53689;56.878;60.672;2023-09-07T00:45:39;25.10;;;14.15;;
62523;SDS011;53689;56.878;60.672;2023-09-07T00:48:07;23.58;;;14.25;;
62523;SDS011;53689;56.878;60.672;2023-09-07T00:50:35;26.00;;;15.05;;
62523;SDS011;53689;56.878;60.672;2023-09-07T00:53:03;23.13;;;14.57;;
62523;SDS011;53689;56.878;60.672;2023-09-07T00:55:32;20.20;;;14.57;;
62523;SDS011;53689;56.878;60.672;2023-09-07T00:58:00;20.95;;;13.80;;
62523;SDS011;53689;56.878;60.672;2023-09-07T01:00:30;22.58;;;15.57;;
62523;SDS011;53689;56.878;60.672;2023-09-07T01:02:59;21.65;;;15.07;;
62523;SDS011;53689;56.878;60.672;2023-09-07T01:05:28;23.65;;;14.82;;
62523;SDS011;53689;56.878;60.672;2023-09-07T01:08:03;20.08;;;14.27;;
62523;SDS011;53689;56.878;60.672;2023-09-07T01:10:38;26.42;;;17.33;;
62523;SDS011;53689;56.878;60.672;2023-09-07T01:13:05;21.80;;;13.90;;
62523;SDS011;53689;56.878;60.672;2023-09-07T01:15:33;19.30;;;14.38;;
62523;SDS011;53689;56.878;60.672;2023-09-07T01:18:01;23.00;;;15.88;;
62523;SDS011;53689;56.878;60.672;2023-09-07T01:20:50;31.83;;;21.63;;
62523;SDS011;53689;56.878;60.672;2023-09-07T01:23:22;35.00;;;23.58;;
62523;SDS011;53689;56.878;60.672;2023-09-07T01:25:50;32.45;;;18.95;;
62523;SDS011;53689;56.878;60.672;2023-09-07T01:28:20;34.63;;;23.17;;
62523;SDS011;53689;56.878;60.672;2023-09-07T01:30:47;33.80;;;20.23;;
62523;SDS011;53689;56.878;60.672;2023-09-07T01:33:15;23.95;;;15.80;;
62523;SDS011;53689;56.878;60.672;2023-09-07T01:35:43;22.65;;;15.07;;
62523;SDS011;53689;56.878;60.672;2023-09-07T01:38:12;26.45;;;16.77;;
62523;SDS011;53689;56.878;60.672;2023-09-07T01:40:41;29.58;;;16.13;;
62523;SDS011;53689;56.878;60.672;2023-09-07T01:43:10;29.60;;;18.17;;
62523;SDS011;53689;56.878;60.672;2023-09-07T01:45:38;25.83;;;17.45;;
62523;SDS011;53689;56.878;60.672;2023-09-07T01:48:07;28.42;;;19.88;;
62523;SDS011;53689;56.878;60.672;2023-09-07T01:50:35;27.05;;;19.85;;
62523;SDS011;53689;56.878;60.672;2023-09-07T01:53:03;29.27;;;19.83;;
62523;SDS011;53689;56.878;60.672;2023-09-07T01:55:31;29.20;;;16.58;;
62523;SDS011;53689;56.878;60.672;2023-09-07T01:58:01;26.08;;;15.65;;
62523;SDS011;53689;56.878;60.672;2023-09-07T02:00:28;37.33;;;16.85;;
62523;SDS011;53689;56.878;60.672;2023-09-07T02:02:56;28.88;;;15.23;;
62523;SDS011;53689;56.878;60.672;2023-09-07T02:05:24;28.33;;;16.05;;
62523;SDS011;53689;56.878;60.672;2023-09-07T02:07:51;22.02;;;13.25;;
62523;SDS011;53689;56.878;60.672;2023-09-07T02:10:19;20.23;;;13.30;;
62523;SDS011;53689;56.878;60.672;2023-09-07T02:12:47;29.13;;;15.45;;
62523;SDS011;53689;56.878;60.672;2023-09-07T02:15:16;29.17;;;16.60;;
62523;SDS011;53689;56.878;60.672;2023-09-07T02:17:44;21.70;;;14.13;;
62523;SDS011;53689;56.878;60.672;2023-09-07T02:20:15;24.70;;;14.43;;
62523;SDS011;53689;56.878;60.672;2023-09-07T02:22:44;28.15;;;16.92;;
62523;SDS011;53689;56.878;60.672;2023-09-07T02:25:12;28.42;;;17.27;;
62523;SDS011;53689;56.878;60.672;2023-09-07T02:27:40;38.83;;;21.45;;
62523;SDS011;53689;56.878;60.672;2023-09-07T02:30:07;39.35;;;20.63;;
62523;SDS011;53689;56.878;60.672;2023-09-07T02:32:37;28.40;;;16.08;;
62523;SDS011;53689;56.878;60.672;2023-09-07T02:35:05;28.45;;;15.52;;
62523;SDS011;53689;56.878;60.672;2023-09-07T02:37:34;24.27;;;13.38;;
62523;SDS011;53689;56.878;60.672;2023-09-07T02:40:03;24.42;;;13.25;;
62523;SDS011;53689;56.878;60.672;2023-09-07T02:42:31;21.25;;;14.13;;
62523;SDS011;53689;56.878;60.672;2023-09-07T02:44:58;20.77;;;13.40;;
62523;SDS011;53689;56.878;60.672;2023-09-07T02:47:26;26.00;;;16.55;;
62523;SDS011;53689;56.878;60.672;2023-09-07T02:49:55;23.67;;;14.82;;
62523;SDS011;53689;56.878;60.672;2023-09-07T02:52:23;20.02;;;11.07;;
62523;SDS011;53689;56.878;60.672;2023-09-07T02:54:51;20.85;;;11.65;;
62523;SDS011;53689;56.878;60.672;2023-09-07T02:57:19;18.40;;;12.02;;
62523;SDS011;53689;56.878;60.672;2023-09-07T02:59:47;18.90;;;11.25;;
62523;SDS011;53689;56.878;60.672;2023-09-07T03:02:14;17.27;;;11.25;;
62523;SDS011;53689;56.878;60.672;2023-09-07T03:04:42;15.45;;;10.43;;
62523;SDS011;53689;56.878;60.672;2023-09-07T03:07:11;16.38;;;10.68;;
62523;SDS011;53689;56.878;60.672;2023-09-07T03:09:40;20.25;;;13.25;;
62523;SDS011;53689;56.878;60.672;2023-09-07T03:12:08;20.27;;;11.98;;
62523;SDS011;53689;56.878;60.672;2023-09-07T03:14:36;23.98;;;13.15;;
62523;SDS011;53689;56.878;60.672;2023-09-07T03:17:04;17.33;;;10.77;;
62523;SDS011;53689;56.878;60.672;2023-09-07T03:19:31;33.60;;;16.65;;
62523;SDS011;53689;56.878;60.672;2023-09-07T03:21:59;25.73;;;15.27;;
62523;SDS011;53689;56.878;60.672;2023-09-07T03:24:28;32.63;;;17.75;;
62523;SDS011;53689;56.878;60.672;2023-09-07T03:26:56;26.45;;;16.40;;
62523;SDS011;53689;56.878;60.672;2023-09-07T03:29:25;23.02;;;11.93;;
62523;SDS011;53689;56.878;60.672;2023-09-07T03:31:53;21.42;;;10.18;;
62523;SDS011;53689;56.878;60.672;2023-09-07T03:34:20;22.67;;;12.30;;
62523;SDS011;53689;56.878;60.672;2023-09-07T03:36:48;23.80;;;14.15;;
62523;SDS011;53689;56.878;60.672;2023-09-07T03:39:16;22.67;;;14.50;;
62523;SDS011;53689;56.878;60.672;2023-09-07T03:41:45;19.38;;;11.80;;
62523;SDS011;53689;56.878;60.672;2023-09-07T03:44:13;16.42;;;10.68;;
62523;SDS011;53689;56.878;60.672;2023-09-07T03:46:41;16.60;;;9.95;;
62523;SDS011;53689;56.878;60.672;2023-09-07T03:49:09;32.65;;;14.88;;
62523;SDS011;53689;56.878;60.672;2023-09-07T03:51:37;21.60;;;12.77;;
62523;SDS011;53689;56.878;60.672;2023-09-07T03:54:04;16.40;;;10.20;;
62523;SDS011;53689;56.878;60.672;2023-09-07T03:56:32;19.58;;;11.02;;
62523;SDS011;53689;56.878;60.672;2023-09-07T03:59:01;21.85;;;13.18;;
62523;SDS011;53689;56.878;60.672;2023-09-07T04:01:29;19.50;;;11.40;;
62523;SDS011;53689;56.878;60.672;2023-09-07T04:03:58;16.92;;;9.35;;
62523;SDS011;53689;56.878;60.672;2023-09-07T04:06:26;19.85;;;13.38;;
62523;SDS011;53689;56.878;60.672;2023-09-07T04:08:53;26.88;;;14.18;;
62523;SDS011;53689;56.878;60.672;2023-09-07T04:11:21;22.77;;;14.57;;
62523;SDS011;53689;56.878;60.672;2023-09-07T04:13:48;26.77;;;13.00;;
62523;SDS011;53689;56.878;60.672;2023-09-07T04:16:17;21.77;;;12.45;;
62523;SDS011;53689;56.878;60.672;2023-09-07T04:18:45;33.85;;;17.30;;
62523;SDS011;53689;56.878;60.672;2023-09-07T04:21:13;26.60;;;16.98;;
62523;SDS011;53689;56.878;60.672;2023-09-07T04:23:40;23.55;;;13.38;;
62523;SDS011;53689;56.878;60.672;2023-09-07T04:26:08;20.70;;;10.82;;
62523;SDS011;53689;56.878;60.672;2023-09-07T04:28:37;19.75;;;10.20;;
62523;SDS011;53689;56.878;60.672;2023-09-07T04:31:06;19.83;;;9.90;;
62523;SDS011;53689;56.878;60.672;2023-09-07T04:33:35;23.52;;;11.88;;
62523;SDS011;53689;56.878;60.672;2023-09-07T04:36:07;24.40;;;15.32;;
62523;SDS011;53689;56.878;60.672;2023-09-07T04:38:35;27.33;;;16.65;;
62523;SDS011;53689;56.878;60.672;2023-09-07T04:41:06;19.98;;;12.43;;
62523;SDS011;53689;56.878;60.672;2023-09-07T04:43:35;16.20;;;8.98;;
62523;SDS011;53689;56.878;60.672;2023-09-07T04:46:03;13.10;;;8.30;;
62523;SDS011;53689;56.878;60.672;2023-09-07T04:48:30;25.90;;;13.70;;
62523;SDS011;53689;56.878;60.672;2023-09-07T04:51:00;18.20;;;10.68;;
62523;SDS011;53689;56.878;60.672;2023-09-07T04:53:29;23.33;;;13.93;;
62523;SDS011;53689;56.878;60.672;2023-09-07T04:55:58;24.60;;;13.95;;
62523;SDS011;53689;56.878;60.672;2023-09-07T04:58:26;17.65;;;9.65;;
62523;SDS011;53689;56.878;60.672;2023-09-07T05:00:54;13.45;;;7.95;;
62523;SDS011;53689;56.878;60.672;2023-09-07T05:03:29;34.47;;;14.57;;
62523;SDS011;53689;56.878;60.672;2023-09-07T05:05:57;26.15;;;13.68;;
62523;SDS011;53689;56.878;60.672;2023-09-07T05:08:26;25.85;;;14.15;;
62523;SDS011;53689;56.878;60.672;2023-09-07T05:13:22;22.88;;;12.10;;
62523;SDS011;53689;56.878;60.672;2023-09-07T05:15:50;21.92;;;12.73;;
62523;SDS011;53689;56.878;60.672;2023-09-07T05:18:19;17.95;;;10.52;;
62523;SDS011;53689;56.878;60.672;2023-09-07T05:20:47;16.17;;;10.25;;
62523;SDS011;53689;56.878;60.672;2023-09-07T05:23:15;19.92;;;12.10;;
62523;SDS011;53689;56.878;60.672;2023-09-07T05:25:45;25.20;;;13.35;;
62523;SDS011;53689;56.878;60.672;2023-09-07T05:28:13;18.58;;;11.38;;
62523;SDS011;53689;56.878;60.672;2023-09-07T05:30:41;18.77;;;10.48;;
62523;SDS011;53689;56.878;60.672;2023-09-07T05:33:10;15.77;;;7.95;;
62523;SDS011;53689;56.878;60.672;2023-09-07T05:35:38;15.18;;;9.00;;
62523;SDS011;53689;56.878;60.672;2023-09-07T05:38:06;14.05;;;7.70;;
62523;SDS011;53689;56.878;60.672;2023-09-07T05:40:35;12.35;;;6.57;;
62523;SDS011;53689;56.878;60.672;2023-09-07T05:43:06;11.83;;;7.07;;
62523;SDS011;53689;56.878;60.672;2023-09-07T05:45:35;13.07;;;6.53;;
62523;SDS011;53689;56.878;60.672;2023-09-07T05:48:05;11.77;;;5.95;;
62523;SDS011;53689;56.878;60.672;2023-09-07T05:50:33;10.50;;;5.93;;
62523;SDS011;53689;56.878;60.672;2023-09-07T05:53:02;11.57;;;6.03;;
62523;SDS011;53689;56.878;60.672;2023-09-07T05:55:31;10.30;;;6.05;;
62523;SDS011;53689;56.878;60.672;2023-09-07T05:58:04;11.57;;;5.90;;
62523;SDS011;53689;56.878;60.672;2023-09-07T06:00:38;9.52;;;5.20;;
62523;SDS011;53689;56.878;60.672;2023-09-07T06:03:06;11.25;;;5.10;;
62523;SDS011;53689;56.878;60.672;2023-09-07T06:05:35;11.07;;;5.13;;
62523;SDS011;53689;56.878;60.672;2023-09-07T06:10:32;9.35;;;5.35;;
62523;SDS011;53689;56.878;60.672;2023-09-07T06:13:00;9.48;;;5.40;;
62523;SDS011;53689;56.878;60.672;2023-09-07T06:15:32;11.38;;;5.53;;
62523;SDS011;53689;56.878;60.672;2023-09-07T06:18:00;7.75;;;5.13;;
62523;SDS011;53689;56.878;60.672;2023-09-07T06:20:28;11.88;;;5.22;;
62523;SDS011;53689;56.878;60.672;2023-09-07T06:22:58;9.18;;;4.72;;
62523;SDS011;53689;56.878;60.672;2023-09-07T06:25:25;14.35;;;4.90;;
62523;SDS011;53689;56.878;60.672;2023-09-07T06:27:54;11.90;;;5.55;;
62523;SDS011;53689;56.878;60.672;2023-09-07T06:30:23;17.75;;;7.78;;
62523;SDS011;53689;56.878;60.672;2023-09-07T06:32:52;19.95;;;9.82;;
62523;SDS011;53689;56.878;60.672;2023-09-07T06:35:21;14.18;;;7.63;;
62523;SDS011;53689;56.878;60.672;2023-09-07T06:37:50;16.50;;;7.53;;
62523;SDS011;53689;56.878;60.672;2023-09-07T06:40:21;17.30;;;7.10;;
62523;SDS011;53689;56.878;60.672;2023-09-07T06:42:52;15.35;;;7.00;;
62523;SDS011;53689;56.878;60.672;2023-09-07T06:47:49;17.15;;;6.78;;
62523;SDS011;53689;56.878;60.672;2023-09-07T06:50:21;17.27;;;6.95;;
62523;SDS011;53689;56.878;60.672;2023-09-07T06:52:50;13.27;;;6.40;;
62523;SDS011;53689;56.878;60.672;2023-09-07T06:55:18;11.05;;;5.85;;
62523;SDS011;53689;56.878;60.672;2023-09-07T06:57:46;10.82;;;5.28;;
62523;SDS011;53689;56.878;60.672;2023-09-07T07:00:14;10.80;;;5.32;;
62523;SDS011;53689;56.878;60.672;2023-09-07T07:02:42;11.40;;;5.60;;
62523;SDS011;53689;56.878;60.672;2023-09-07T07:05:11;9.65;;;5.63;;
62523;SDS011;53689;56.878;60.672;2023-09-07T07:07:41;14.57;;;5.07;;
62523;SDS011;53689;56.878;60.672;2023-09-07T07:10:09;11.55;;;5.35;;
62523;SDS011;53689;56.878;60.672;2023-09-07T07:12:39;11.02;;;5.35;;
62523;SDS011;53689;56.878;60.672;2023-09-07T07:15:08;10.05;;;5.00;;
62523;SDS011;53689;56.878;60.672;2023-09-07T07:17:37;11.85;;;5.53;;
62523;SDS011;53689;56.878;60.672;2023-09-07T07:20:05;9.70;;;5.28;;
62523;SDS011;53689;56.878;60.672;2023-09-07T07:22:34;9.75;;;4.88;;
62523;SDS011;53689;56.878;60.672;2023-09-07T07:25:04;9.27;;;5.00;;
62523;SDS011;53689;56.878;60.672;2023-09-07T07:27:33;11.45;;;5.60;;
62523;SDS011;53689;56.878;60.672;2023-09-07T07:30:01;11.95;;;6.07;;
62523;SDS011;53689;56.878;60.672;2023-09-07T07:32:29;11.73;;;5.82;;
62523;SDS011;53689;56.878;60.672;2023-09-07T07:34:57;10.23;;;5.30;;
62523;SDS011;53689;56.878;60.672;2023-09-07T07:37:25;10.70;;;5.63;;
62523;SDS011;53689;56.878;60.672;2023-09-07T07:39:53;14.43;;;8.70;;
62523;SDS011;53689;56.878;60.672;2023-09-07T07:42:22;12.65;;;7.05;;
62523;SDS011;53689;56.878;60.672;2023-09-07T07:47:17;9.55;;;5.70;;
62523;SDS011;53689;56.878;60.672;2023-09-07T07:49:46;11.50;;;6.25;;
62523;SDS011;53689;56.878;60.672;2023-09-07T07:52:13;8.55;;;5.40;;
62523;SDS011;53689;56.878;60.672;2023-09-07T07:54:41;10.55;;;5.63;;
62523;SDS011;53689;56.878;60.672;2023-09-07T07:57:09;8.45;;;5.30;;
62523;SDS011;53689;56.878;60.672;2023-09-07T07:59:39;11.15;;;5.13;;
62523;SDS011;53689;56.878;60.672;2023-09-07T08:02:06;10.90;;;5.10;;
62523;SDS011;53689;56.878;60.672;2023-09-07T08:04:35;8.77;;;5.05;;
62523;SDS011;53689;56.878;60.672;2023-09-07T08:07:04;6.68;;;4.63;;
62523;SDS011;53689;56.878;60.672;2023-09-07T08:09:33;10.37;;;5.20;;
62523;SDS011;53689;56.878;60.672;2023-09-07T08:12:02;14.02;;;11.18;;
62523;SDS011;53689;56.878;60.672;2023-09-07T08:14:32;24.65;;;17.27;;
62523;SDS011;53689;56.878;60.672;2023-09-07T08:17:03;21.38;;;11.13;;
62523;SDS011;53689;56.878;60.672;2023-09-07T08:19:31;18.20;;;10.13;;
62523;SDS011;53689;56.878;60.672;2023-09-07T08:22:01;20.55;;;10.68;;
62523;SDS011;53689;56.878;60.672;2023-09-07T08:24:28;16.55;;;9.48;;
62523;SDS011;53689;56.878;60.672;2023-09-07T08:26:56;16.42;;;9.15;;
62523;SDS011;53689;56.878;60.672;2023-09-07T08:29:24;13.57;;;8.40;;
62523;SDS011;53689;56.878;60.672;2023-09-07T08:31:51;12.15;;;7.22;;
62523;SDS011;53689;56.878;60.672;2023-09-07T08:34:26;22.98;;;18.33;;
62523;SDS011;53689;56.878;60.672;2023-09-07T08:36:54;15.57;;;12.10;;
62523;SDS011;53689;56.878;60.672;2023-09-07T08:39:22;16.05;;;11.25;;
62523;SDS011;53689;56.878;60.672;2023-09-07T08:41:49;15.68;;;9.15;;
62523;SDS011;53689;56.878;60.672;2023-09-07T08:44:29;11.07;;;7.13;;
62523;SDS011;53689;56.878;60.672;2023-09-07T08:46:59;11.35;;;6.95;;
62523;SDS011;53689;56.878;60.672;2023-09-07T08:49:31;11.77;;;7.10;;
62523;SDS011;53689;56.878;60.672;2023-09-07T08:52:00;13.15;;;7.25;;
62523;SDS011;53689;56.878;60.672;2023-09-07T08:54:30;11.80;;;6.40;;
62523;SDS011;53689;56.878;60.672;2023-09-07T08:59:30;11.68;;;6.80;;
62523;SDS011;53689;56.878;60.672;2023-09-07T09:01:57;10.10;;;6.35;;
62523;SDS011;53689;56.878;60.672;2023-09-07T09:04:25;10.82;;;7.38;;
62523;SDS011;53689;56.878;60.672;2023-09-07T09:06:56;13.25;;;9.18;;
62523;SDS011;53689;56.878;60.672;2023-09-07T09:09:24;15.82;;;10.52;;
62523;SDS011;53689;56.878;60.672;2023-09-07T09:11:52;17.23;;;9.55;;
62523;SDS011;53689;56.878;60.672;2023-09-07T09:14:19;28.75;;;14.07;;
62523;SDS011;53689;56.878;60.672;2023-09-07T09:16:50;22.85;;;13.30;;
62523;SDS011;53689;56.878;60.672;2023-09-07T09:19:18;19.83;;;11.00;;
62523;SDS011;53689;56.878;60.672;2023-09-07T09:21:46;21.35;;;12.32;;
62523;SDS011;53689;56.878;60.672;2023-09-07T09:24:15;18.02;;;11.55;;
62523;SDS011;53689;56.878;60.672;2023-09-07T09:26:43;19.88;;;10.50;;
62523;SDS011;53689;56.878;60.672;2023-09-07T09:29:12;12.60;;;7.75;;
62523;SDS011;53689;56.878;60.672;2023-09-07T09:31:39;12.13;;;7.78;;
62523;SDS011;53689;56.878;60.672;2023-09-07T09:34:08;12.20;;;7.13;;
62523;SDS011;53689;56.878;60.672;2023-09-07T09:36:36;13.85;;;7.78;;
62523;SDS011;53689;56.878;60.672;2023-09-07T09:39:04;11.45;;;7.90;;
62523;SDS011;53689;56.878;60.672;2023-09-07T09:41:33;12.48;;;7.80;;
62523;SDS011;53689;56.878;60.672;2023-09-07T09:44:02;12.77;;;7.00;;
62523;SDS011;53689;56.878;60.672;2023-09-07T09:46:31;11.05;;;6.78;;
62523;SDS011;53689;56.878;60.672;2023-09-07T09:49:00;12.40;;;6.35;;
62523;SDS011;53689;56.878;60.672;2023-09-07T09:53:57;27.77;;;20.50;;
62523;SDS011;53689;56.878;60.672;2023-09-07T09:56:25;11.57;;;8.90;;
62523;SDS011;53689;56.878;60.672;2023-09-07T09:58:54;17.45;;;10.25;;
62523;SDS011;53689;56.878;60.672;2023-09-07T10:01:22;26.85;;;14.02;;
62523;SDS011;53689;56.878;60.672;2023-09-07T10:03:50;26.85;;;12.88;;
62523;SDS011;53689;56.878;60.672;2023-09-07T10:06:19;19.67;;;11.10;;
62523;SDS011;53689;56.878;60.672;2023-09-07T10:08:53;19.08;;;11.82;;
62523;SDS011;53689;56.878;60.672;2023-09-07T10:11:32;12.82;;;7.32;;
62523;SDS011;53689;56.878;60.672;2023-09-07T10:14:02;12.27;;;7.05;;
62523;SDS011;53689;56.878;60.672;2023-09-07T10:16:40;10.95;;;7.18;;
62523;SDS011;53689;56.878;60.672;2023-09-07T10:19:16;10.90;;;6.35;;
62523;SDS011;53689;56.878;60.672;2023-09-07T10:21:44;59.33;;;14.98;;
62523;SDS011;53689;56.878;60.672;2023-09-07T10:24:14;35.00;;;11.68;;
62523;SDS011;53689;56.878;60.672;2023-09-07T10:26:55;22.35;;;9.32;;
62523;SDS011;53689;56.878;60.672;2023-09-07T10:29:26;29.42;;;10.68;;
62523;SDS011;53689;56.878;60.672;2023-09-07T10:31:54;21.88;;;8.60;;
62523;SDS011;53689;56.878;60.672;2023-09-07T10:34:33;22.20;;;8.45;;
62523;SDS011;53689;56.878;60.672;2023-09-07T10:37:02;12.30;;;6.38;;
62523;SDS011;53689;56.878;60.672;2023-09-07T10:39:31;11.82;;;6.07;;
62523;SDS011;53689;56.878;60.672;2023-09-07T10:41:59;13.35;;;6.13;;
62523;SDS011;53689;56.878;60.672;2023-09-07T10:44:29;12.30;;;6.03;;
62523;SDS011;53689;56.878;60.672;2023-09-07T10:46:56;9.85;;;6.35;;
62523;SDS011;53689;56.878;60.672;2023-09-07T10:49:25;11.32;;;5.88;;
62523;SDS011;53689;56.878;60.672;2023-09-07T10:51:53;12.63;;;5.90;;
62523;SDS011;53689;56.878;60.672;2023-09-07T10:54:22;14.35;;;6.25;;
62523;SDS011;53689;56.878;60.672;2023-09-07T10:56:51;12.25;;;6.03;;
62523;SDS011;53689;56.878;60.672;2023-09-07T10:59:21;11.60;;;6.10;;
62523;SDS011;53689;56.878;60.672;2023-09-07T11:01:50;10.70;;;5.57;;
62523;SDS011;53689;56.878;60.672;2023-09-07T11:04:18;10.73;;;5.32;;
62523;SDS011;53689;56.878;60.672;2023-09-07T11:06:46;9.43;;;5.97;;
62523;SDS011;53689;56.878;60.672;2023-09-07T11:09:15;11.30;;;5.90;;
62523;SDS011;53689;56.878;60.672;2023-09-07T11:11:46;12.48;;;6.38;;
62523;SDS011;53689;56.878;60.672;2023-09-07T11:14:14;12.07;;;6.47;;
62523;SDS011;53689;56.878;60.672;2023-09-07T11:16:41;8.73;;;5.18;;
62523;SDS011;53689;56.878;60.672;2023-09-07T11:19:11;11.13;;;6.28;;
62523;SDS011;53689;56.878;60.672;2023-09-07T11:21:40;8.13;;;5.15;;
62523;SDS011;53689;56.878;60.672;2023-09-07T11:24:08;9.30;;;5.43;;
62523;SDS011;53689;56.878;60.672;2023-09-07T11:26:42;8.10;;;4.93;;
62523;SDS011;53689;56.878;60.672;2023-09-07T11:29:13;9.32;;;4.95;;
62523;SDS011;53689;56.878;60.672;2023-09-07T11:31:41;9.07;;;5.47;;
62523;SDS011;53689;56.878;60.672;2023-09-07T11:34:11;8.50;;;5.20;;
62523;SDS011;53689;56.878;60.672;2023-09-07T11:36:39;9.20;;;4.60;;
62523;SDS011;53689;56.878;60.672;2023-09-07T11:39:07;7.50;;;4.75;;
62523;SDS011;53689;56.878;60.672;2023-09-07T11:41:40;9.48;;;4.93;;
62523;SDS011;53689;56.878;60.672;2023-09-07T11:44:09;8.40;;;4.55;;
62523;SDS011;53689;56.878;60.672;2023-09-07T11:46:38;8.05;;;4.60;;
62523;SDS011;53689;56.878;60.672;2023-09-07T11:49:06;9.23;;;5.35;;
62523;SDS011;53689;56.878;60.672;2023-09-07T11:51:35;11.10;;;7.05;;
62523;SDS011;53689;56.878;60.672;2023-09-07T11:54:04;13.80;;;9.43;;
62523;SDS011;53689;56.878;60.672;2023-09-07T11:56:32;9.95;;;7.25;;
62523;SDS011;53689;56.878;60.672;2023-09-07T11:59:01;10.93;;;7.72;;
62523;SDS011;53689;56.878;60.672;2023-09-07T12:01:29;11.68;;;7.03;;
62523;SDS011;53689;56.878;60.672;2023-09-07T12:03:57;8.88;;;5.82;;
62523;SDS011;53689;56.878;60.672;2023-09-07T12:06:25;11.32;;;8.27;;
62523;SDS011;53689;56.878;60.672;2023-09-07T12:09:01;9.73;;;6.03;;
62523;SDS011;53689;56.878;60.672;2023-09-07T12:11:30;11.55;;;6.28;;
62523;SDS011;53689;56.878;60.672;2023-09-07T12:13:57;9.35;;;6.05;;
62523;SDS011;53689;56.878;60.672;2023-09-07T12:16:26;11.20;;;5.80;;
62523;SDS011;53689;56.878;60.672;2023-09-07T12:18:55;9.57;;;6.07;;
62523;SDS011;53689;56.878;60.672;2023-09-07T12:21:23;9.18;;;6.00;;
62523;SDS011;53689;56.878;60.672;2023-09-07T12:23:50;9.27;;;5.35;;
62523;SDS011;53689;56.878;60.672;2023-09-07T12:26:20;9.65;;;5.20;;
62523;SDS011;53689;56.878;60.672;2023-09-07T12:28:48;6.90;;;4.90;;
62523;SDS011;53689;56.878;60.672;2023-09-07T12:31:16;8.80;;;5.43;;
62523;SDS011;53689;56.878;60.672;2023-09-07T12:33:43;8.75;;;5.30;;
62523;SDS011;53689;56.878;60.672;2023-09-07T12:36:11;6.57;;;4.50;;
62523;SDS011;53689;56.878;60.672;2023-09-07T12:38:39;11.18;;;5.22;;
62523;SDS011;53689;56.878;60.672;2023-09-07T12:41:06;7.60;;;4.90;;
62523;SDS011;53689;56.878;60.672;2023-09-07T12:43:36;10.85;;;5.45;;
62523;SDS011;53689;56.878;60.672;2023-09-07T12:46:03;11.52;;;5.50;;
62523;SDS011;53689;56.878;60.672;2023-09-07T12:48:31;8.27;;;5.28;;
62523;SDS011;53689;56.878;60.672;2023-09-07T12:50:59;9.02;;;4.43;;
62523;SDS011;53689;56.878;60.672;2023-09-07T12:53:28;8.13;;;5.32;;
62523;SDS011;53689;56.878;60.672;2023-09-07T12:55:56;8.80;;;4.95;;
62523;SDS011;53689;56.878;60.672;2023-09-07T12:58:24;10.13;;;5.57;;
62523;SDS011;53689;56.878;60.672;2023-09-07T13:00:54;9.27;;;5.30;;
62523;SDS011;53689;56.878;60.672;2023-09-07T13:03:22;9.52;;;4.90;;
62523;SDS011;53689;56.878;60.672;2023-09-07T13:05:50;7.50;;;5.15;;
62523;SDS011;53689;56.878;60.672;2023-09-07T13:08:17;7.85;;;5.05;;
62523;SDS011;53689;56.878;60.672;2023-09-07T13:10:45;10.25;;;5.88;;
62523;SDS011;53689;56.878;60.672;2023-09-07T13:13:12;8.02;;;5.03;;
62523;SDS011;53689;56.878;60.672;2023-09-07T13:15:41;8.80;;;5.40;;
62523;SDS011;53689;56.878;60.672;2023-09-07T13:18:10;8.63;;;5.18;;
62523;SDS011;53689;56.878;60.672;2023-09-07T13:20:42;8.93;;;5.25;;
62523;SDS011;53689;56.878;60.672;2023-09-07T13:23:09;10.10;;;5.47;;
62523;SDS011;53689;56.878;60.672;2023-09-07T13:25:37;9.07;;;5.07;;
62523;SDS011;53689;56.878;60.672;2023-09-07T13:28:05;9.13;;;4.85;;
62523;SDS011;53689;56.878;60.672;2023-09-07T13:30:33;11.23;;;4.65;;
62523;SDS011;53689;56.878;60.672;2023-09-07T13:33:00;7.32;;;5.13;;
62523;SDS011;53689;56.878;60.672;2023-09-07T13:35:29;8.15;;;5.07;;
62523;SDS011;53689;56.878;60.672;2023-09-07T13:37:57;9.35;;;5.25;;
62523;SDS011;53689;56.878;60.672;2023-09-07T13:40:24;8.70;;;5.25;;
62523;SDS011;53689;56.878;60.672;2023-09-07T13:42:52;11.00;;;4.97;;
62523;SDS011;53689;56.878;60.672;2023-09-07T13:45:20;8.48;;;5.60;;
62523;SDS011;53689;56.878;60.672;2023-09-07T13:47:48;7.13;;;5.03;;
62523;SDS011;53689;56.878;60.672;2023-09-07T13:50:16;7.63;;;5.32;;
62523;SDS011;53689;56.878;60.672;2023-09-07T13:52:47;9.45;;;5.13;;
62523;SDS011;53689;56.878;60.672;2023-09-07T13:55:15;8.02;;;4.88;;
62523;SDS011;53689;56.878;60.672;2023-09-07T13:57:43;8.57;;;4.72;;
62523;SDS011;53689;56.878;60.672;2023-09-07T14:00:11;8.70;;;5.65;;
62523;SDS011;53689;56.878;60.672;2023-09-07T14:02:40;9.05;;;5.07;;
62523;SDS011;53689;56.878;60.672;2023-09-07T14:05:10;9.23;;;5.38;;
62523;SDS011;53689;56.878;60.672;2023-09-07T14:07:39;10.70;;;5.35;;
62523;SDS011;53689;56.878;60.672;2023-09-07T14:10:09;9.95;;;5.38;;
62523;SDS011;53689;56.878;60.672;2023-09-07T14:12:36;10.38;;;5.05;;
62523;SDS011;53689;56.878;60.672;2023-09-07T14:15:04;8.55;;;5.45;;
62523;SDS011;53689;56.878;60.672;2023-09-07T14:17:33;8.27;;;5.45;;
62523;SDS011;53689;56.878;60.672;2023-09-07T14:20:00;10.48;;;5.55;;
62523;SDS011;53689;56.878;60.672;2023-09-07T14:22:29;7.78;;;5.10;;
62523;SDS011;53689;56.878;60.672;2023-09-07T14:24:57;9.25;;;5.90;;
62523;SDS011;53689;56.878;60.672;2023-09-07T14:27:27;12.23;;;5.47;;
62523;SDS011;53689;56.878;60.672;2023-09-07T14:29:55;8.82;;;5.43;;
62523;SDS011;53689;56.878;60.672;2023-09-07T14:32:23;11.80;;;6.60;;
62523;SDS011;53689;56.878;60.672;2023-09-07T14:34:50;9.90;;;6.43;;
62523;SDS011;53689;56.878;60.672;2023-09-07T14:37:18;12.45;;;6.05;;
62523;SDS011;53689;56.878;60.672;2023-09-07T14:39:46;10.90;;;7.30;;
62523;SDS011;53689;56.878;60.672;2023-09-07T14:42:14;14.90;;;9.57;;
62523;SDS011;53689;56.878;60.672;2023-09-07T14:44:44;10.60;;;6.30;;